createdAt,value
2023-03-18T00:01:35.295Z,3.80
2023-03-18T00:04:04.295Z,4.47
2023-03-18T00:06:32.178Z,4.65
2023-03-18T00:08:59.845Z,3.85
2023-03-18T00:11:28.797Z,7.18
2023-03-18T00:13:56.363Z,7.18
2023-03-18T00:16:24.256Z,4.82
2023-03-18T00:18:52.080Z,6.97
2023-03-18T00:21:19.782Z,5.65
2023-03-18T00:23:48.790Z,6.60
2023-03-18T00:26:17.132Z,7.05
2023-03-18T00:28:46.157Z,5.85
2023-03-18T00:31:14.028Z,8.15
2023-03-18T00:33:45.690Z,5.22
2023-03-18T00:36:14.655Z,5.55
2023-03-18T00:38:46.006Z,6.28
2023-03-18T00:41:15.774Z,8.40
2023-03-18T00:43:52.592Z,8.57
2023-03-18T00:46:23.440Z,6.93
2023-03-18T00:48:52.174Z,17.35
2023-03-18T00:51:22.612Z,22.08
2023-03-18T00:53:52.118Z,36.85
2023-03-18T00:56:22.067Z,34.75
2023-03-18T00:58:52.228Z,30.00
2023-03-18T01:01:20.764Z,21.02
2023-03-18T01:03:50.043Z,18.35
2023-03-18T01:06:20.563Z,8.55
2023-03-18T01:08:48.190Z,8.73
2023-03-18T01:11:16.171Z,7.70
2023-03-18T01:13:44.245Z,6.18
2023-03-18T01:16:13.557Z,4.68
2023-03-18T01:18:41.798Z,4.18
2023-03-18T01:21:10.580Z,6.50
2023-03-18T01:23:39.229Z,7.85
2023-03-18T01:26:07.615Z,5.65
2023-03-18T01:28:35.264Z,5.95
2023-03-18T01:31:03.239Z,5.70
2023-03-18T01:33:33.420Z,5.05
2023-03-18T01:36:03.786Z,7.15
2023-03-18T01:38:31.833Z,3.90
2023-03-18T01:41:00.180Z,6.97
2023-03-18T01:43:30.512Z,4.43
2023-03-18T01:46:00.229Z,6.22
2023-03-18T01:48:30.799Z,4.72
2023-03-18T01:51:02.831Z,4.95
2023-03-18T01:53:36.023Z,4.07
2023-03-18T01:56:05.946Z,4.75
2023-03-18T01:58:38.204Z,5.28
2023-03-18T02:01:10.483Z,6.63
2023-03-18T02:03:41.940Z,9.75
2023-03-18T02:06:12.353Z,7.03
2023-03-18T02:08:41.167Z,4.13
2023-03-18T02:11:10.157Z,5.38
2023-03-18T02:13:41.345Z,3.88
2023-03-18T02:16:14.597Z,6.72
2023-03-18T02:18:46.924Z,5.88
2023-03-18T02:21:29.605Z,6.63
2023-03-18T02:24:09.461Z,5.20
2023-03-18T02:26:52.464Z,4.45
2023-03-18T02:29:22.946Z,6.43
2023-03-18T02:31:51.022Z,6.15
2023-03-18T02:34:19.595Z,8.93
2023-03-18T02:36:47.463Z,8.43
2023-03-18T02:39:16.708Z,9.73
2023-03-18T02:41:45.429Z,7.13
2023-03-18T02:44:13.690Z,9.07
2023-03-18T02:46:53.922Z,6.20
2023-03-18T02:49:23.275Z,7.03
2023-03-18T02:51:53.939Z,6.28
2023-03-18T02:54:23.564Z,9.43
2023-03-18T02:56:51.876Z,9.35
2023-03-18T02:59:20.499Z,7.07
2023-03-18T03:01:52.112Z,6.53
2023-03-18T03:04:22.096Z,9.43
2023-03-18T03:06:50.279Z,8.90
2023-03-18T03:09:18.461Z,5.70
2023-03-18T03:11:48.108Z,5.57
2023-03-18T03:14:17.213Z,8.73
2023-03-18T03:16:45.199Z,7.00
2023-03-18T03:19:14.283Z,5.82
2023-03-18T03:21:42.298Z,6.05
2023-03-18T03:24:10.867Z,5.57
2023-03-18T03:26:38.572Z,7.35
2023-03-18T03:29:07.312Z,6.80
2023-03-18T03:31:35.617Z,7.57
2023-03-18T03:34:04.674Z,9.40
2023-03-18T03:36:33.660Z,8.85
2023-03-18T03:39:01.332Z,8.75
2023-03-18T03:41:28.989Z,16.33
2023-03-18T03:43:56.628Z,8.43
2023-03-18T03:46:24.275Z,10.23
2023-03-18T03:48:51.955Z,9.02
2023-03-18T03:51:19.803Z,8.13
2023-03-18T03:53:48.879Z,7.70
2023-03-18T03:56:17.960Z,5.95
2023-03-18T03:58:45.724Z,9.30
2023-03-18T04:01:13.559Z,6.65
2023-03-18T04:03:41.105Z,6.88
2023-03-18T04:06:09.015Z,8.63
2023-03-18T04:08:36.722Z,8.30
2023-03-18T04:11:05.961Z,8.50
2023-03-18T04:13:33.705Z,11.77
2023-03-18T04:16:01.451Z,7.75
2023-03-18T04:18:29.064Z,8.85
2023-03-18T04:20:56.773Z,8.73
2023-03-18T04:23:24.380Z,8.15
2023-03-18T04:25:52.253Z,8.57
2023-03-18T04:28:21.191Z,10.13
2023-03-18T04:30:49.046Z,7.22
2023-03-18T04:33:16.707Z,11.40
2023-03-18T04:35:44.612Z,10.40
2023-03-18T04:38:12.874Z,8.52
2023-03-18T04:40:40.852Z,8.63
2023-03-18T04:43:09.897Z,9.55
2023-03-18T04:45:38.885Z,9.40
2023-03-18T04:48:06.871Z,8.93
2023-03-18T04:50:35.271Z,9.18
2023-03-18T04:53:03.397Z,11.40
2023-03-18T04:55:31.313Z,9.70
2023-03-18T04:57:59.078Z,11.15
2023-03-18T05:00:27.639Z,9.07
2023-03-18T05:02:56.615Z,9.43
2023-03-18T05:05:24.247Z,7.45
2023-03-18T05:07:52.016Z,9.50
2023-03-18T05:10:19.869Z,7.95
2023-03-18T05:12:48.522Z,8.63
2023-03-18T05:15:16.151Z,6.60
2023-03-18T05:17:43.948Z,9.57
2023-03-18T05:20:16.564Z,8.82
2023-03-18T05:22:44.189Z,6.85
2023-03-18T05:25:12.641Z,5.97
2023-03-18T05:27:40.502Z,8.25
2023-03-18T05:30:09.515Z,9.18
2023-03-18T05:32:38.025Z,6.68
2023-03-18T05:35:06.748Z,6.72
2023-03-18T05:37:36.885Z,8.13
2023-03-18T05:40:05.020Z,8.75
2023-03-18T05:42:35.169Z,9.85
2023-03-18T05:45:05.072Z,5.93
2023-03-18T05:47:32.961Z,6.43
2023-03-18T05:50:02.827Z,5.50
2023-03-18T05:52:33.121Z,5.72
2023-03-18T05:55:02.330Z,9.52
2023-03-18T05:57:32.647Z,6.28
2023-03-18T06:00:00.724Z,5.95
2023-03-18T06:02:28.400Z,9.68
2023-03-18T06:04:56.012Z,6.82
2023-03-18T06:07:23.643Z,7.22
2023-03-18T06:09:52.236Z,9.73
2023-03-18T06:12:23.900Z,7.85
2023-03-18T06:14:52.366Z,6.43
2023-03-18T06:17:20.291Z,5.65
2023-03-18T06:19:48.985Z,6.65
2023-03-18T06:22:17.460Z,4.95
2023-03-18T06:24:47.186Z,6.78
2023-03-18T06:27:15.922Z,6.32
2023-03-18T06:29:45.173Z,9.27
2023-03-18T06:32:13.080Z,9.15
2023-03-18T06:34:41.045Z,8.55
2023-03-18T06:37:09.601Z,6.40
2023-03-18T06:39:38.149Z,8.73
2023-03-18T06:42:07.018Z,6.53
2023-03-18T06:44:35.313Z,7.88
2023-03-18T06:47:04.309Z,8.93
2023-03-18T06:49:32.531Z,6.93
2023-03-18T06:52:00.412Z,7.55
2023-03-18T06:54:28.621Z,5.80
2023-03-18T06:56:56.228Z,7.22
2023-03-18T06:59:23.926Z,5.50
2023-03-18T07:01:51.627Z,5.72
2023-03-18T07:04:20.640Z,6.75
2023-03-18T07:06:48.289Z,5.32
2023-03-18T07:09:16.732Z,7.95
2023-03-18T07:11:45.681Z,4.78
2023-03-18T07:14:14.425Z,11.38
2023-03-18T07:16:44.732Z,6.30
2023-03-18T07:19:12.429Z,6.97
2023-03-18T07:21:42.916Z,5.00
2023-03-18T07:24:11.272Z,4.13
2023-03-18T07:26:39.295Z,5.35
2023-03-18T07:29:07.022Z,5.03
2023-03-18T07:31:34.813Z,5.65
2023-03-18T07:34:02.552Z,8.88
2023-03-18T07:36:30.329Z,5.93
2023-03-18T07:39:02.018Z,5.03
2023-03-18T07:41:29.981Z,6.13
2023-03-18T07:43:57.770Z,5.13
2023-03-18T07:46:25.817Z,5.85
2023-03-18T07:48:56.123Z,7.25
2023-03-18T07:51:23.780Z,5.63
2023-03-18T07:53:51.746Z,6.70
2023-03-18T07:56:21.257Z,6.53
2023-03-18T07:58:49.086Z,6.70
2023-03-18T08:01:18.362Z,4.55
2023-03-18T08:03:47.450Z,5.55
2023-03-18T08:06:16.360Z,5.82
2023-03-18T08:08:45.456Z,8.48
2023-03-18T08:11:14.723Z,7.68
2023-03-18T08:13:43.951Z,4.60
2023-03-18T08:16:12.223Z,6.57
2023-03-18T08:18:39.927Z,6.88
2023-03-18T08:21:07.793Z,5.60
2023-03-18T08:23:35.799Z,6.43
2023-03-18T08:26:03.658Z,6.13
2023-03-18T08:28:31.402Z,4.40
2023-03-18T08:31:01.164Z,5.18
2023-03-18T08:33:28.978Z,4.03
2023-03-18T08:35:57.813Z,5.43
2023-03-18T08:38:25.852Z,5.38
2023-03-18T08:40:53.817Z,5.93
2023-03-18T08:43:23.010Z,10.07
2023-03-18T08:45:54.535Z,8.25
2023-03-18T08:48:25.665Z,5.72
2023-03-18T08:50:53.562Z,6.00
2023-03-18T08:53:21.348Z,6.65
2023-03-18T08:55:49.508Z,8.77
2023-03-18T08:58:18.411Z,4.10
2023-03-18T09:00:46.755Z,6.55
2023-03-18T09:03:16.000Z,4.93
2023-03-18T09:05:48.869Z,6.97
2023-03-18T09:08:16.629Z,6.72
2023-03-18T09:10:47.244Z,6.28
2023-03-18T09:13:15.403Z,6.93
2023-03-18T09:15:43.164Z,7.18
2023-03-18T09:18:12.638Z,7.53
2023-03-18T09:20:40.553Z,8.27
2023-03-18T09:23:11.363Z,4.88
2023-03-18T09:25:39.922Z,5.60
2023-03-18T09:28:07.712Z,4.68
2023-03-18T09:30:39.385Z,4.53
2023-03-18T09:33:09.178Z,4.72
2023-03-18T09:35:38.483Z,6.97
2023-03-18T09:38:07.222Z,7.82
2023-03-18T09:40:41.327Z,6.50
2023-03-18T09:43:21.047Z,7.55
2023-03-18T09:46:00.553Z,5.40
2023-03-18T09:48:45.889Z,8.20
2023-03-18T09:51:25.369Z,11.35
2023-03-18T09:53:57.755Z,6.00
2023-03-18T09:56:30.548Z,5.82
2023-03-18T09:59:03.367Z,8.50
2023-03-18T10:01:34.739Z,9.43
2023-03-18T10:04:07.255Z,10.68
2023-03-18T10:06:39.169Z,16.95
2023-03-18T10:09:15.868Z,5.93
2023-03-18T10:11:47.326Z,6.10
2023-03-18T10:14:25.239Z,6.72
2023-03-18T10:17:04.673Z,7.88
2023-03-18T10:19:32.916Z,4.53
2023-03-18T10:22:18.140Z,6.68
2023-03-18T10:24:53.651Z,7.80
2023-03-18T10:27:38.295Z,7.32
2023-03-18T10:30:30.372Z,11.30
2023-03-18T10:33:08.202Z,5.35
2023-03-18T10:35:41.483Z,6.40
2023-03-18T10:38:18.936Z,8.27
2023-03-18T10:40:47.920Z,4.35
2023-03-18T10:43:19.431Z,6.38
2023-03-18T10:45:49.513Z,12.70
2023-03-18T10:48:26.546Z,5.10
2023-03-18T10:51:04.707Z,8.05
2023-03-18T10:53:39.036Z,6.90
2023-03-18T10:56:10.402Z,8.82
2023-03-18T10:58:41.493Z,4.30
2023-03-18T11:01:13.117Z,7.03
2023-03-18T11:03:45.043Z,8.15
2023-03-18T11:06:18.785Z,7.40
2023-03-18T11:08:49.825Z,8.90
2023-03-18T11:11:23.734Z,6.40
2023-03-18T11:13:55.711Z,5.93
2023-03-18T11:16:30.607Z,5.82
2023-03-18T11:19:00.015Z,4.72
2023-03-18T11:21:29.863Z,5.50
2023-03-18T11:24:20.935Z,5.35
2023-03-18T11:26:55.928Z,4.80
2023-03-18T11:29:29.034Z,5.55
2023-03-18T11:31:59.235Z,4.00
2023-03-18T11:34:29.956Z,6.18
2023-03-18T11:37:01.126Z,5.43
2023-03-18T11:39:31.572Z,6.78
2023-03-18T11:42:01.482Z,6.18
2023-03-18T11:44:32.808Z,6.93
2023-03-18T11:47:07.345Z,5.55
2023-03-18T11:49:35.458Z,5.10
2023-03-18T11:52:15.879Z,5.07
2023-03-18T11:55:15.693Z,4.88
2023-03-18T11:58:01.986Z,3.80
2023-03-18T12:00:38.967Z,6.35
2023-03-18T12:03:40.941Z,7.13
2023-03-18T12:06:20.171Z,4.05
2023-03-18T12:08:54.279Z,4.15
2023-03-18T12:11:32.972Z,4.90
2023-03-18T12:14:09.567Z,5.63
2023-03-18T12:16:50.455Z,4.00
2023-03-18T12:19:39.934Z,8.32
2023-03-18T12:22:43.287Z,4.63
2023-03-18T12:25:30.466Z,7.63
2023-03-18T12:28:04.150Z,4.70
2023-03-18T12:30:53.094Z,3.72
2023-03-18T12:33:37.116Z,6.30
2023-03-18T12:36:14.077Z,3.78
2023-03-18T12:39:11.617Z,6.05
2023-03-18T12:41:50.281Z,4.25
2023-03-18T12:44:33.484Z,5.38
2023-03-18T12:47:06.623Z,5.10
2023-03-18T12:49:39.887Z,4.78
2023-03-18T12:52:10.476Z,5.50
2023-03-18T12:54:42.912Z,5.70
2023-03-18T12:57:18.974Z,5.88
2023-03-18T12:59:53.335Z,5.65
2023-03-18T13:02:36.369Z,4.80
2023-03-18T13:05:14.185Z,5.55
2023-03-18T13:07:47.085Z,6.90
2023-03-18T13:10:22.491Z,6.05
2023-03-18T13:12:54.816Z,7.60
2023-03-18T13:15:29.949Z,4.07
2023-03-18T13:18:01.597Z,4.78
2023-03-18T13:20:34.761Z,3.50
2023-03-18T13:23:17.508Z,3.97
2023-03-18T13:25:57.346Z,4.13
2023-03-18T13:28:41.959Z,3.80
2023-03-18T13:31:15.463Z,4.80
2023-03-18T13:33:59.064Z,5.07
2023-03-18T13:36:55.549Z,3.50
2023-03-18T13:39:37.384Z,4.40
2023-03-18T13:42:21.595Z,3.45
2023-03-18T13:44:56.520Z,4.85
2023-03-18T13:47:25.478Z,9.38
2023-03-18T13:50:01.113Z,4.97
2023-03-18T13:52:36.998Z,4.22
2023-03-18T13:55:14.466Z,4.35
2023-03-18T13:57:48.920Z,4.97
2023-03-18T14:00:34.139Z,3.72
2023-03-18T14:03:06.388Z,4.03
2023-03-18T14:05:40.438Z,4.38
2023-03-18T14:08:37.128Z,4.68
2023-03-18T14:11:49.853Z,2.72
2023-03-18T14:15:06.187Z,6.60
2023-03-18T14:17:46.029Z,3.28
2023-03-18T14:20:30.022Z,6.40
2023-03-18T14:23:18.976Z,3.28
2023-03-18T14:25:54.980Z,3.63
2023-03-18T14:28:26.420Z,4.25
2023-03-18T14:31:22.184Z,3.50
2023-03-18T14:34:02.988Z,3.55
2023-03-18T14:37:18.487Z,3.97
2023-03-18T14:39:52.603Z,4.05
2023-03-18T14:42:31.775Z,4.25
2023-03-18T14:45:06.611Z,3.08
2023-03-18T14:47:46.186Z,2.95
2023-03-18T14:50:19.125Z,4.65
2023-03-18T14:52:54.037Z,2.92
2023-03-18T14:55:25.590Z,4.90
2023-03-18T14:57:54.539Z,6.72
2023-03-18T15:00:24.176Z,6.03
2023-03-18T15:03:01.005Z,4.75
2023-03-18T15:05:35.060Z,4.05
2023-03-18T15:08:07.199Z,4.53
2023-03-18T15:10:34.883Z,4.28
2023-03-18T15:13:07.611Z,4.57
2023-03-18T15:15:35.931Z,4.32
2023-03-18T15:18:12.330Z,5.82
2023-03-18T15:20:40.698Z,3.70
2023-03-18T15:23:10.156Z,4.45
2023-03-18T15:25:42.480Z,3.78
2023-03-18T15:28:19.130Z,3.25
2023-03-18T15:30:55.730Z,4.57
2023-03-18T15:33:26.036Z,5.30
2023-03-18T15:35:58.028Z,4.47
2023-03-18T15:38:31.118Z,6.43
2023-03-18T15:41:02.913Z,6.00
2023-03-18T15:43:35.810Z,3.35
2023-03-18T15:46:09.457Z,4.07
2023-03-18T15:48:40.186Z,2.97
2023-03-18T15:51:22.125Z,3.33
2023-03-18T15:53:53.512Z,3.13
2023-03-18T15:56:27.099Z,4.63
2023-03-18T15:59:03.910Z,3.28
2023-03-18T16:01:32.011Z,3.95
2023-03-18T16:04:02.700Z,4.75
2023-03-18T16:06:34.253Z,9.70
2023-03-18T16:09:02.256Z,10.52
2023-03-18T16:11:30.090Z,5.25
2023-03-18T16:13:59.704Z,4.30
2023-03-18T16:16:30.635Z,4.60
2023-03-18T16:18:59.629Z,4.07
2023-03-18T16:21:27.959Z,3.22
2023-03-18T16:23:55.878Z,4.88
2023-03-18T16:26:23.819Z,2.85
2023-03-18T16:28:51.674Z,3.70
2023-03-18T16:31:20.687Z,3.38
2023-03-18T16:33:52.784Z,4.00
2023-03-18T16:36:28.012Z,8.38
2023-03-18T16:38:56.091Z,5.25
2023-03-18T16:41:23.819Z,6.28
2023-03-18T16:43:52.614Z,3.80
2023-03-18T16:46:21.624Z,3.25
2023-03-18T16:48:50.379Z,8.20
2023-03-18T16:51:19.018Z,4.47
2023-03-18T16:53:46.662Z,5.80
2023-03-18T16:56:20.776Z,5.28
2023-03-18T16:58:48.598Z,4.07
2023-03-18T17:01:19.207Z,3.70
2023-03-18T17:03:48.306Z,2.55
2023-03-18T17:06:16.140Z,4.10
2023-03-18T17:08:43.850Z,6.00
2023-03-18T17:11:19.008Z,4.88
2023-03-18T17:13:47.142Z,5.55
2023-03-18T17:16:19.886Z,6.90
2023-03-18T17:18:49.469Z,5.93
2023-03-18T17:21:17.249Z,5.68
2023-03-18T17:23:45.733Z,6.07
2023-03-18T17:26:16.147Z,3.35
2023-03-18T17:28:46.621Z,4.75
2023-03-18T17:31:14.878Z,4.72
2023-03-18T17:33:43.000Z,6.47
2023-03-18T17:36:13.102Z,6.75
2023-03-18T17:38:41.816Z,7.68
2023-03-18T17:41:17.962Z,8.30
2023-03-18T17:43:45.993Z,5.70
2023-03-18T17:46:16.354Z,7.88
2023-03-18T17:48:44.207Z,7.75
2023-03-18T17:51:16.505Z,10.85
2023-03-18T17:53:47.824Z,8.32
2023-03-18T17:56:17.651Z,10.38
2023-03-18T17:58:47.054Z,17.33
2023-03-18T18:01:19.459Z,12.75
2023-03-18T18:03:48.337Z,12.70
2023-03-18T18:06:19.665Z,9.50
2023-03-18T18:08:51.400Z,9.50
2023-03-18T18:11:22.865Z,8.50
2023-03-18T18:13:52.490Z,7.03
2023-03-18T18:16:21.511Z,8.88
2023-03-18T18:18:50.291Z,7.55
2023-03-18T18:21:22.138Z,9.82
2023-03-18T18:23:50.322Z,7.80
2023-03-18T18:26:19.600Z,9.52
2023-03-18T18:28:49.334Z,10.10
2023-03-18T18:31:19.279Z,8.50
2023-03-18T18:33:49.825Z,8.70
2023-03-18T18:36:21.612Z,9.82
2023-03-18T18:38:50.691Z,12.38
2023-03-18T18:41:18.349Z,8.43
2023-03-18T18:43:47.341Z,9.40
2023-03-18T18:46:23.477Z,8.57
2023-03-18T18:48:51.792Z,12.55
2023-03-18T18:51:22.875Z,7.25
2023-03-18T18:53:53.371Z,6.57
2023-03-18T18:56:25.561Z,8.85
2023-03-18T18:58:54.031Z,11.38
2023-03-18T19:01:22.092Z,10.30
2023-03-18T19:03:49.891Z,7.65
2023-03-18T19:06:30.748Z,11.98
2023-03-18T19:09:00.461Z,9.32
2023-03-18T19:11:29.445Z,7.00
2023-03-18T19:14:18.124Z,5.82
2023-03-18T19:16:48.077Z,7.63
2023-03-18T19:19:18.043Z,6.25
2023-03-18T19:21:47.159Z,6.00
2023-03-18T19:24:27.161Z,4.55
2023-03-18T19:26:56.154Z,7.10
2023-03-18T19:29:24.591Z,8.07
2023-03-18T19:31:52.765Z,5.00
2023-03-18T19:34:21.680Z,5.43
2023-03-18T19:36:53.826Z,5.97
2023-03-18T19:39:22.863Z,6.70
2023-03-18T19:41:51.226Z,6.85
2023-03-18T19:44:20.403Z,7.00
2023-03-18T19:46:50.798Z,14.68
2023-03-18T19:49:21.650Z,10.68
2023-03-18T19:51:51.011Z,11.68
2023-03-18T19:54:27.024Z,12.25
2023-03-18T19:56:56.260Z,10.50
2023-03-18T19:59:33.512Z,13.10
2023-03-18T20:02:04.991Z,10.43
2023-03-18T20:04:32.717Z,10.85
2023-03-18T20:07:04.756Z,9.45
2023-03-18T20:09:32.567Z,10.52
2023-03-18T20:12:04.691Z,14.13
2023-03-18T20:14:40.152Z,9.88
2023-03-18T20:17:30.589Z,8.65
2023-03-18T20:19:58.856Z,10.18
2023-03-18T20:22:31.440Z,8.68
2023-03-18T20:24:59.407Z,7.55
2023-03-18T20:27:27.128Z,5.35
2023-03-18T20:29:54.702Z,5.88
2023-03-18T20:32:23.669Z,7.30
2023-03-18T20:34:51.549Z,5.88
2023-03-18T20:37:25.867Z,5.95
2023-03-18T20:39:55.061Z,6.25
2023-03-18T20:42:22.737Z,3.83
2023-03-18T20:44:50.517Z,6.15
2023-03-18T20:47:18.439Z,5.47
2023-03-18T20:49:46.417Z,5.00
2023-03-18T20:52:25.771Z,4.15
2023-03-18T20:54:56.484Z,5.25
2023-03-18T20:57:24.579Z,6.03
2023-03-18T20:59:52.738Z,6.07
2023-03-18T21:02:29.722Z,9.55
2023-03-18T21:04:58.246Z,7.18
2023-03-18T21:07:28.738Z,6.40
2023-03-18T21:09:59.908Z,6.78
2023-03-18T21:12:27.912Z,9.00
2023-03-18T21:14:55.907Z,20.95
2023-03-18T21:17:25.873Z,21.15
2023-03-18T21:20:04.931Z,13.30
2023-03-18T21:22:38.995Z,12.50
2023-03-18T21:25:12.435Z,12.70
2023-03-18T21:27:40.073Z,6.35
2023-03-18T21:30:09.912Z,10.00
2023-03-18T21:32:39.850Z,8.15
2023-03-18T21:35:15.664Z,8.98
2023-03-18T21:37:43.493Z,8.73
2023-03-18T21:40:16.921Z,6.57
2023-03-18T21:42:44.701Z,6.60
2023-03-18T21:45:14.352Z,11.27
2023-03-18T21:47:42.382Z,25.88
2023-03-18T21:50:20.572Z,39.10
2023-03-18T21:52:48.581Z,33.50
2023-03-18T21:55:17.955Z,26.50
2023-03-18T21:57:48.295Z,23.95
2023-03-18T22:00:19.815Z,31.05
2023-03-18T22:02:48.755Z,22.33
2023-03-18T22:05:19.116Z,18.77
2023-03-18T22:07:47.541Z,20.23
2023-03-18T22:10:17.905Z,11.48
2023-03-18T22:12:45.942Z,12.68
2023-03-18T22:15:34.886Z,10.75
2023-03-18T22:18:03.018Z,11.57
2023-03-18T22:20:31.397Z,10.73
2023-03-18T22:22:59.182Z,10.93
2023-03-18T22:25:31.343Z,11.05
2023-03-18T22:27:59.999Z,15.52
2023-03-18T22:30:30.191Z,10.77
2023-03-18T22:32:58.652Z,5.97
2023-03-18T22:35:27.796Z,6.38
2023-03-18T22:37:56.045Z,5.88
2023-03-18T22:40:25.839Z,5.13
2023-03-18T22:42:57.004Z,5.05
2023-03-18T22:45:27.287Z,5.50
2023-03-18T22:47:56.792Z,5.93
2023-03-18T22:50:25.902Z,4.97
2023-03-18T22:52:58.915Z,6.20
2023-03-18T22:55:29.330Z,3.88
2023-03-18T22:57:58.360Z,5.15
2023-03-18T23:00:33.709Z,5.03
2023-03-18T23:03:03.305Z,5.00
2023-03-18T23:05:32.740Z,4.88
2023-03-18T23:08:00.581Z,6.20
2023-03-18T23:10:28.421Z,5.63
2023-03-18T23:12:56.241Z,6.47
2023-03-18T23:15:25.473Z,5.75
2023-03-18T23:17:53.214Z,5.60
2023-03-18T23:20:20.892Z,4.72
2023-03-18T23:22:48.556Z,5.07
2023-03-18T23:25:18.429Z,5.30
2023-03-18T23:27:46.324Z,4.32
2023-03-18T23:30:14.874Z,4.68
2023-03-18T23:32:45.186Z,6.47
2023-03-18T23:35:13.323Z,5.15
2023-03-18T23:37:41.110Z,3.47
2023-03-18T23:40:10.155Z,4.80
2023-03-18T23:42:37.825Z,6.15
2023-03-18T23:45:06.642Z,5.20
2023-03-18T23:47:34.474Z,7.45
2023-03-18T23:50:03.663Z,7.18
2023-03-18T23:52:31.237Z,5.50
2023-03-18T23:54:59.207Z,6.60
2023-03-18T23:57:27.998Z,7.03
2023-03-18T23:59:55.752Z,5.97
